sensor_id;sensor_type;location;lat;lon;timestamp;P1;durP1;ratioP1;P2;durP2;ratioP2
3433;SDS011;1730;41.932;25.548;2023-12-20T00:01:32;38.30;;;26.77;;
3433;SDS011;1730;41.932;25.548;2023-12-20T00:03:58;36.27;;;23.70;;
3433;SDS011;1730;41.932;25.548;2023-12-20T00:06:23;32.33;;;23.00;;
3433;SDS011;1730;41.932;25.548;2023-12-20T00:08:49;32.03;;;22.57;;
3433;SDS011;1730;41.932;25.548;2023-12-20T00:11:14;35.77;;;21.73;;
3433;SDS011;1730;41.932;25.548;2023-12-20T00:13:40;51.47;;;26.50;;
3433;SDS011;1730;41.932;25.548;2023-12-20T00:16:05;42.40;;;25.10;;
3433;SDS011;1730;41.932;25.548;2023-12-20T00:18:31;47.23;;;25.57;;
3433;SDS011;1730;41.932;25.548;2023-12-20T00:20:56;69.90;;;32.23;;
3433;SDS011;1730;41.932;25.548;2023-12-20T00:23:22;39.33;;;25.87;;
3433;SDS011;1730;41.932;25.548;2023-12-20T00:25:48;41.30;;;25.40;;
3433;SDS011;1730;41.932;25.548;2023-12-20T00:28:14;40.13;;;26.67;;
3433;SDS011;1730;41.932;25.548;2023-12-20T00:30:39;47.03;;;27.00;;
3433;SDS011;1730;41.932;25.548;2023-12-20T00:33:05;60.63;;;30.80;;
3433;SDS011;1730;41.932;25.548;2023-12-20T00:35:30;58.13;;;31.80;;
3433;SDS011;1730;41.932;25.548;2023-12-20T00:37:56;57.60;;;31.50;;
3433;SDS011;1730;41.932;25.548;2023-12-20T00:40:21;61.53;;;32.80;;
3433;SDS011;1730;41.932;25.548;2023-12-20T00:42:47;63.30;;;32.50;;
3433;SDS011;1730;41.932;25.548;2023-12-20T00:45:13;61.87;;;29.37;;
3433;SDS011;1730;41.932;25.548;2023-12-20T00:47:39;48.37;;;28.33;;
3433;SDS011;1730;41.932;25.548;2023-12-20T00:50:05;66.43;;;34.17;;
3433;SDS011;1730;41.932;25.548;2023-12-20T00:52:31;80.43;;;38.73;;
3433;SDS011;1730;41.932;25.548;2023-12-20T00:54:58;53.50;;;30.83;;
3433;SDS011;1730;41.932;25.548;2023-12-20T00:57:23;49.10;;;31.77;;
3433;SDS011;1730;41.932;25.548;2023-12-20T00:59:49;51.73;;;33.50;;
3433;SDS011;1730;41.932;25.548;2023-12-20T01:02:14;47.53;;;31.50;;
3433;SDS011;1730;41.932;25.548;2023-12-20T01:04:39;47.20;;;30.50;;
3433;SDS011;1730;41.932;25.548;2023-12-20T01:07:05;43.00;;;27.33;;
3433;SDS011;1730;41.932;25.548;2023-12-20T01:09:30;42.53;;;25.60;;
3433;SDS011;1730;41.932;25.548;2023-12-20T01:11:56;36.13;;;23.50;;
3433;SDS011;1730;41.932;25.548;2023-12-20T01:14:21;31.83;;;21.50;;
3433;SDS011;1730;41.932;25.548;2023-12-20T01:16:47;27.83;;;19.57;;
3433;SDS011;1730;41.932;25.548;2023-12-20T01:19:14;30.27;;;19.30;;
3433;SDS011;1730;41.932;25.548;2023-12-20T01:21:40;28.10;;;19.13;;
3433;SDS011;1730;41.932;25.548;2023-12-20T01:24:05;28.07;;;18.60;;
3433;SDS011;1730;41.932;25.548;2023-12-20T01:26:31;33.60;;;20.60;;
3433;SDS011;1730;41.932;25.548;2023-12-20T01:28:56;36.53;;;21.43;;
3433;SDS011;1730;41.932;25.548;2023-12-20T01:31:22;33.60;;;19.73;;
3433;SDS011;1730;41.932;25.548;2023-12-20T01:33:47;31.37;;;18.37;;
3433;SDS011;1730;41.932;25.548;2023-12-20T01:36:13;31.93;;;18.70;;
3433;SDS011;1730;41.932;25.548;2023-12-20T01:38:38;25.47;;;17.27;;
3433;SDS011;1730;41.932;25.548;2023-12-20T01:41:04;25.60;;;16.73;;
3433;SDS011;1730;41.932;25.548;2023-12-20T01:43:30;21.93;;;17.47;;
3433;SDS011;1730;41.932;25.548;2023-12-20T01:45:58;27.23;;;17.77;;
3433;SDS011;1730;41.932;25.548;2023-12-20T01:48:25;26.13;;;17.07;;
3433;SDS011;1730;41.932;25.548;2023-12-20T01:50:57;21.33;;;15.57;;
3433;SDS011;1730;41.932;25.548;2023-12-20T01:53:25;22.20;;;16.87;;
3433;SDS011;1730;41.932;25.548;2023-12-20T01:55:54;26.70;;;16.93;;
3433;SDS011;1730;41.932;25.548;2023-12-20T01:58:20;27.90;;;17.90;;
3433;SDS011;1730;41.932;25.548;2023-12-20T02:00:46;27.50;;;17.10;;
3433;SDS011;1730;41.932;25.548;2023-12-20T02:03:13;23.50;;;16.20;;
3433;SDS011;1730;41.932;25.548;2023-12-20T02:05:39;31.00;;;19.27;;
3433;SDS011;1730;41.932;25.548;2023-12-20T02:08:06;36.03;;;20.50;;
3433;SDS011;1730;41.932;25.548;2023-12-20T02:10:31;31.40;;;19.17;;
3433;SDS011;1730;41.932;25.548;2023-12-20T02:12:57;32.00;;;19.20;;
3433;SDS011;1730;41.932;25.548;2023-12-20T02:15:23;26.77;;;17.57;;
3433;SDS011;1730;41.932;25.548;2023-12-20T02:17:49;29.47;;;17.80;;
3433;SDS011;1730;41.932;25.548;2023-12-20T02:20:15;27.30;;;18.00;;
3433;SDS011;1730;41.932;25.548;2023-12-20T02:22:42;28.27;;;18.33;;
3433;SDS011;1730;41.932;25.548;2023-12-20T02:25:07;27.67;;;17.53;;
3433;SDS011;1730;41.932;25.548;2023-12-20T02:27:34;30.63;;;16.87;;
3433;SDS011;1730;41.932;25.548;2023-12-20T02:30:00;26.83;;;18.07;;
3433;SDS011;1730;41.932;25.548;2023-12-20T02:32:25;27.63;;;17.47;;
3433;SDS011;1730;41.932;25.548;2023-12-20T02:34:51;29.43;;;17.80;;
3433;SDS011;1730;41.932;25.548;2023-12-20T02:37:17;25.33;;;16.70;;
3433;SDS011;1730;41.932;25.548;2023-12-20T02:39:42;24.27;;;15.37;;
3433;SDS011;1730;41.932;25.548;2023-12-20T02:42:08;20.87;;;13.40;;
3433;SDS011;1730;41.932;25.548;2023-12-20T02:44:33;18.67;;;12.90;;
3433;SDS011;1730;41.932;25.548;2023-12-20T02:46:59;16.53;;;12.67;;
3433;SDS011;1730;41.932;25.548;2023-12-20T02:49:24;14.03;;;11.10;;
3433;SDS011;1730;41.932;25.548;2023-12-20T02:51:50;18.77;;;11.40;;
3433;SDS011;1730;41.932;25.548;2023-12-20T02:54:16;18.13;;;11.50;;
3433;SDS011;1730;41.932;25.548;2023-12-20T02:56:41;16.90;;;10.93;;
3433;SDS011;1730;41.932;25.548;2023-12-20T02:59:07;18.13;;;12.23;;
3433;SDS011;1730;41.932;25.548;2023-12-20T03:01:33;18.53;;;11.17;;
3433;SDS011;1730;41.932;25.548;2023-12-20T03:04:00;18.70;;;10.37;;
3433;SDS011;1730;41.932;25.548;2023-12-20T03:06:26;13.47;;;10.13;;
3433;SDS011;1730;41.932;25.548;2023-12-20T03:08:51;12.53;;;9.80;;
3433;SDS011;1730;41.932;25.548;2023-12-20T03:11:17;15.10;;;10.50;;
3433;SDS011;1730;41.932;25.548;2023-12-20T03:13:42;12.53;;;10.57;;
3433;SDS011;1730;41.932;25.548;2023-12-20T03:16:11;12.60;;;10.13;;
3433;SDS011;1730;41.932;25.548;2023-12-20T03:18:38;19.97;;;11.67;;
3433;SDS011;1730;41.932;25.548;2023-12-20T03:21:04;21.10;;;12.23;;
3433;SDS011;1730;41.932;25.548;2023-12-20T03:23:30;18.13;;;12.33;;
3433;SDS011;1730;41.932;25.548;2023-12-20T03:25:57;19.93;;;12.83;;
3433;SDS011;1730;41.932;25.548;2023-12-20T03:28:23;19.03;;;13.87;;
3433;SDS011;1730;41.932;25.548;2023-12-20T03:30:49;26.40;;;16.40;;
3433;SDS011;1730;41.932;25.548;2023-12-20T03:33:14;25.93;;;15.83;;
3433;SDS011;1730;41.932;25.548;2023-12-20T03:35:40;22.07;;;15.50;;
3433;SDS011;1730;41.932;25.548;2023-12-20T03:38:06;29.83;;;19.43;;
3433;SDS011;1730;41.932;25.548;2023-12-20T03:40:32;27.47;;;16.80;;
3433;SDS011;1730;41.932;25.548;2023-12-20T03:42:57;26.50;;;15.70;;
3433;SDS011;1730;41.932;25.548;2023-12-20T03:45:23;21.43;;;14.50;;
3433;SDS011;1730;41.932;25.548;2023-12-20T03:47:49;19.67;;;13.80;;
3433;SDS011;1730;41.932;25.548;2023-12-20T03:50:14;17.70;;;12.40;;
3433;SDS011;1730;41.932;25.548;2023-12-20T03:52:41;19.90;;;13.37;;
3433;SDS011;1730;41.932;25.548;2023-12-20T03:55:07;22.83;;;14.73;;
3433;SDS011;1730;41.932;25.548;2023-12-20T03:57:33;23.43;;;16.07;;
3433;SDS011;1730;41.932;25.548;2023-12-20T03:59:58;31.73;;;16.77;;
3433;SDS011;1730;41.932;25.548;2023-12-20T04:02:24;24.80;;;14.70;;
3433;SDS011;1730;41.932;25.548;2023-12-20T04:04:49;21.10;;;13.30;;
3433;SDS011;1730;41.932;25.548;2023-12-20T04:07:15;26.47;;;15.47;;
3433;SDS011;1730;41.932;25.548;2023-12-20T04:09:41;33.43;;;18.93;;
3433;SDS011;1730;41.932;25.548;2023-12-20T04:12:06;35.67;;;23.47;;
3433;SDS011;1730;41.932;25.548;2023-12-20T04:14:32;31.10;;;19.87;;
3433;SDS011;1730;41.932;25.548;2023-12-20T04:16:58;27.83;;;18.43;;
3433;SDS011;1730;41.932;25.548;2023-12-20T04:19:23;23.40;;;14.90;;
3433;SDS011;1730;41.932;25.548;2023-12-20T04:21:49;25.33;;;15.57;;
3433;SDS011;1730;41.932;25.548;2023-12-20T04:24:14;31.70;;;17.10;;
3433;SDS011;1730;41.932;25.548;2023-12-20T04:26:40;28.40;;;14.80;;
3433;SDS011;1730;41.932;25.548;2023-12-20T04:29:05;29.27;;;16.07;;
3433;SDS011;1730;41.932;25.548;2023-12-20T04:31:31;27.00;;;16.53;;
3433;SDS011;1730;41.932;25.548;2023-12-20T04:33:56;34.47;;;18.67;;
3433;SDS011;1730;41.932;25.548;2023-12-20T04:36:22;28.97;;;17.57;;
3433;SDS011;1730;41.932;25.548;2023-12-20T04:38:48;24.53;;;16.60;;
3433;SDS011;1730;41.932;25.548;2023-12-20T04:41:13;21.40;;;15.50;;
3433;SDS011;1730;41.932;25.548;2023-12-20T04:43:43;18.60;;;13.80;;
3433;SDS011;1730;41.932;25.548;2023-12-20T04:46:11;27.30;;;19.93;;
3433;SDS011;1730;41.932;25.548;2023-12-20T04:48:37;35.00;;;24.10;;
3433;SDS011;1730;41.932;25.548;2023-12-20T04:51:03;29.20;;;18.40;;
3433;SDS011;1730;41.932;25.548;2023-12-20T04:53:30;103.10;;;49.43;;
3433;SDS011;1730;41.932;25.548;2023-12-20T04:55:57;136.30;;;62.00;;
3433;SDS011;1730;41.932;25.548;2023-12-20T04:58:22;284.27;;;116.30;;
3433;SDS011;1730;41.932;25.548;2023-12-20T05:00:49;188.00;;;83.57;;
3433;SDS011;1730;41.932;25.548;2023-12-20T05:03:14;133.30;;;60.63;;
3433;SDS011;1730;41.932;25.548;2023-12-20T05:05:39;116.37;;;44.97;;
3433;SDS011;1730;41.932;25.548;2023-12-20T05:08:05;67.00;;;35.67;;
3433;SDS011;1730;41.932;25.548;2023-12-20T05:10:31;58.27;;;31.20;;
3433;SDS011;1730;41.932;25.548;2023-12-20T05:12:57;53.10;;;30.53;;
3433;SDS011;1730;41.932;25.548;2023-12-20T05:15:22;52.20;;;32.70;;
3433;SDS011;1730;41.932;25.548;2023-12-20T05:17:47;58.47;;;34.13;;
3433;SDS011;1730;41.932;25.548;2023-12-20T05:20:13;57.70;;;33.03;;
3433;SDS011;1730;41.932;25.548;2023-12-20T05:22:38;54.23;;;31.67;;
3433;SDS011;1730;41.932;25.548;2023-12-20T05:25:04;50.77;;;32.33;;
3433;SDS011;1730;41.932;25.548;2023-12-20T05:27:30;34.90;;;23.87;;
3433;SDS011;1730;41.932;25.548;2023-12-20T05:29:55;35.30;;;24.80;;
3433;SDS011;1730;41.932;25.548;2023-12-20T05:32:23;35.10;;;24.20;;
3433;SDS011;1730;41.932;25.548;2023-12-20T05:34:48;31.03;;;22.80;;
3433;SDS011;1730;41.932;25.548;2023-12-20T05:37:14;25.77;;;20.20;;
3433;SDS011;1730;41.932;25.548;2023-12-20T05:39:39;28.30;;;20.00;;
3433;SDS011;1730;41.932;25.548;2023-12-20T05:42:05;38.47;;;21.37;;
3433;SDS011;1730;41.932;25.548;2023-12-20T05:44:31;35.43;;;20.57;;
3433;SDS011;1730;41.932;25.548;2023-12-20T05:46:56;29.80;;;21.00;;
3433;SDS011;1730;41.932;25.548;2023-12-20T05:49:22;29.67;;;20.27;;
3433;SDS011;1730;41.932;25.548;2023-12-20T05:51:47;25.43;;;19.10;;
3433;SDS011;1730;41.932;25.548;2023-12-20T05:54:15;27.20;;;19.60;;
3433;SDS011;1730;41.932;25.548;2023-12-20T05:56:40;22.30;;;16.00;;
3433;SDS011;1730;41.932;25.548;2023-12-20T05:59:06;22.43;;;15.87;;
3433;SDS011;1730;41.932;25.548;2023-12-20T06:01:31;28.73;;;18.23;;
3433;SDS011;1730;41.932;25.548;2023-12-20T06:03:57;39.60;;;24.03;;
3433;SDS011;1730;41.932;25.548;2023-12-20T06:06:23;58.53;;;34.13;;
3433;SDS011;1730;41.932;25.548;2023-12-20T06:08:49;61.57;;;33.93;;
3433;SDS011;1730;41.932;25.548;2023-12-20T06:11:14;62.80;;;34.47;;
3433;SDS011;1730;41.932;25.548;2023-12-20T06:13:41;60.77;;;34.60;;
3433;SDS011;1730;41.932;25.548;2023-12-20T06:16:06;74.03;;;41.90;;
3433;SDS011;1730;41.932;25.548;2023-12-20T06:18:34;68.57;;;35.27;;
3433;SDS011;1730;41.932;25.548;2023-12-20T06:21:01;78.87;;;39.60;;
3433;SDS011;1730;41.932;25.548;2023-12-20T06:23:27;78.67;;;43.43;;
3433;SDS011;1730;41.932;25.548;2023-12-20T06:25:53;82.77;;;46.73;;
3433;SDS011;1730;41.932;25.548;2023-12-20T06:28:18;90.03;;;48.13;;
3433;SDS011;1730;41.932;25.548;2023-12-20T06:30:44;103.30;;;52.87;;
3433;SDS011;1730;41.932;25.548;2023-12-20T06:33:10;116.70;;;55.10;;
3433;SDS011;1730;41.932;25.548;2023-12-20T06:35:36;131.67;;;60.47;;
3433;SDS011;1730;41.932;25.548;2023-12-20T06:38:02;142.00;;;60.47;;
3433;SDS011;1730;41.932;25.548;2023-12-20T06:40:28;124.93;;;54.70;;
3433;SDS011;1730;41.932;25.548;2023-12-20T06:42:54;133.73;;;60.73;;
3433;SDS011;1730;41.932;25.548;2023-12-20T06:45:19;135.90;;;61.80;;
3433;SDS011;1730;41.932;25.548;2023-12-20T06:47:45;113.37;;;57.73;;
3433;SDS011;1730;41.932;25.548;2023-12-20T06:50:10;105.20;;;52.67;;
3433;SDS011;1730;41.932;25.548;2023-12-20T06:52:36;97.63;;;51.40;;
3433;SDS011;1730;41.932;25.548;2023-12-20T06:55:03;114.83;;;62.17;;
3433;SDS011;1730;41.932;25.548;2023-12-20T06:57:29;91.67;;;50.10;;
3433;SDS011;1730;41.932;25.548;2023-12-20T06:59:55;66.77;;;42.00;;
3433;SDS011;1730;41.932;25.548;2023-12-20T07:02:21;68.60;;;42.07;;
3433;SDS011;1730;41.932;25.548;2023-12-20T07:04:47;79.97;;;45.97;;
3433;SDS011;1730;41.932;25.548;2023-12-20T07:07:13;83.90;;;46.70;;
3433;SDS011;1730;41.932;25.548;2023-12-20T07:09:38;77.53;;;47.00;;
3433;SDS011;1730;41.932;25.548;2023-12-20T07:12:06;84.07;;;48.90;;
3433;SDS011;1730;41.932;25.548;2023-12-20T07:14:32;95.43;;;57.00;;
3433;SDS011;1730;41.932;25.548;2023-12-20T07:16:58;95.87;;;57.93;;
3433;SDS011;1730;41.932;25.548;2023-12-20T07:19:23;101.00;;;53.83;;
3433;SDS011;1730;41.932;25.548;2023-12-20T07:21:48;92.47;;;54.07;;
3433;SDS011;1730;41.932;25.548;2023-12-20T07:24:14;109.37;;;63.37;;
3433;SDS011;1730;41.932;25.548;2023-12-20T07:26:39;118.13;;;69.00;;
3433;SDS011;1730;41.932;25.548;2023-12-20T07:29:05;132.90;;;76.50;;
3433;SDS011;1730;41.932;25.548;2023-12-20T07:31:31;153.60;;;85.93;;
3433;SDS011;1730;41.932;25.548;2023-12-20T07:33:57;147.07;;;86.93;;
3433;SDS011;1730;41.932;25.548;2023-12-20T07:36:23;146.93;;;87.87;;
3433;SDS011;1730;41.932;25.548;2023-12-20T07:38:48;153.27;;;89.60;;
3433;SDS011;1730;41.932;25.548;2023-12-20T07:41:14;161.57;;;92.67;;
3433;SDS011;1730;41.932;25.548;2023-12-20T07:43:41;122.43;;;75.43;;
3433;SDS011;1730;41.932;25.548;2023-12-20T07:46:09;116.60;;;71.70;;
3433;SDS011;1730;41.932;25.548;2023-12-20T07:48:35;118.40;;;73.90;;
3433;SDS011;1730;41.932;25.548;2023-12-20T07:51:01;130.27;;;79.27;;
3433;SDS011;1730;41.932;25.548;2023-12-20T07:53:27;137.13;;;84.40;;
3433;SDS011;1730;41.932;25.548;2023-12-20T07:55:52;149.73;;;92.30;;
3433;SDS011;1730;41.932;25.548;2023-12-20T07:58:18;140.80;;;89.77;;
3433;SDS011;1730;41.932;25.548;2023-12-20T08:00:44;149.90;;;94.90;;
3433;SDS011;1730;41.932;25.548;2023-12-20T08:03:09;152.93;;;94.70;;
3433;SDS011;1730;41.932;25.548;2023-12-20T08:05:35;143.00;;;92.10;;
3433;SDS011;1730;41.932;25.548;2023-12-20T08:08:00;149.50;;;91.77;;
3433;SDS011;1730;41.932;25.548;2023-12-20T08:10:26;142.80;;;87.90;;
3433;SDS011;1730;41.932;25.548;2023-12-20T08:12:54;156.53;;;88.83;;
3433;SDS011;1730;41.932;25.548;2023-12-20T08:15:21;154.53;;;94.40;;
3433;SDS011;1730;41.932;25.548;2023-12-20T08:17:46;139.47;;;84.60;;
3433;SDS011;1730;41.932;25.548;2023-12-20T08:20:12;142.77;;;86.10;;
3433;SDS011;1730;41.932;25.548;2023-12-20T08:22:38;142.10;;;86.27;;
3433;SDS011;1730;41.932;25.548;2023-12-20T08:25:03;135.40;;;83.90;;
3433;SDS011;1730;41.932;25.548;2023-12-20T08:27:29;144.07;;;89.60;;
3433;SDS011;1730;41.932;25.548;2023-12-20T08:29:57;152.17;;;90.60;;
3433;SDS011;1730;41.932;25.548;2023-12-20T08:32:24;171.70;;;97.57;;
3433;SDS011;1730;41.932;25.548;2023-12-20T08:34:51;181.90;;;113.07;;
3433;SDS011;1730;41.932;25.548;2023-12-20T08:37:16;191.93;;;114.40;;
3433;SDS011;1730;41.932;25.548;2023-12-20T08:39:42;220.13;;;130.80;;
3433;SDS011;1730;41.932;25.548;2023-12-20T08:42:09;206.17;;;121.07;;
3433;SDS011;1730;41.932;25.548;2023-12-20T08:44:35;172.37;;;102.70;;
3433;SDS011;1730;41.932;25.548;2023-12-20T08:47:00;183.70;;;106.97;;
3433;SDS011;1730;41.932;25.548;2023-12-20T08:49:26;223.40;;;125.80;;
3433;SDS011;1730;41.932;25.548;2023-12-20T08:51:53;178.07;;;107.87;;
3433;SDS011;1730;41.932;25.548;2023-12-20T08:54:18;172.77;;;102.83;;
3433;SDS011;1730;41.932;25.548;2023-12-20T08:56:44;157.40;;;98.87;;
3433;SDS011;1730;41.932;25.548;2023-12-20T08:59:11;135.83;;;88.00;;
3433;SDS011;1730;41.932;25.548;2023-12-20T09:01:37;154.60;;;96.20;;
3433;SDS011;1730;41.932;25.548;2023-12-20T09:04:03;109.20;;;71.30;;
3433;SDS011;1730;41.932;25.548;2023-12-20T09:06:29;117.00;;;78.67;;
3433;SDS011;1730;41.932;25.548;2023-12-20T09:08:54;116.67;;;73.20;;
3433;SDS011;1730;41.932;25.548;2023-12-20T09:11:20;116.97;;;73.47;;
3433;SDS011;1730;41.932;25.548;2023-12-20T09:13:45;127.70;;;81.13;;
3433;SDS011;1730;41.932;25.548;2023-12-20T09:16:11;123.90;;;81.00;;
3433;SDS011;1730;41.932;25.548;2023-12-20T09:18:38;132.37;;;85.17;;
3433;SDS011;1730;41.932;25.548;2023-12-20T09:21:03;137.43;;;91.60;;
3433;SDS011;1730;41.932;25.548;2023-12-20T09:23:29;144.47;;;96.87;;
3433;SDS011;1730;41.932;25.548;2023-12-20T09:25:54;157.53;;;99.83;;
3433;SDS011;1730;41.932;25.548;2023-12-20T09:28:21;162.07;;;103.83;;
3433;SDS011;1730;41.932;25.548;2023-12-20T09:30:47;137.30;;;90.47;;
3433;SDS011;1730;41.932;25.548;2023-12-20T09:33:13;143.73;;;84.00;;
3433;SDS011;1730;41.932;25.548;2023-12-20T09:35:39;139.70;;;81.60;;
3433;SDS011;1730;41.932;25.548;2023-12-20T09:38:04;106.97;;;67.50;;
3433;SDS011;1730;41.932;25.548;2023-12-20T09:40:30;110.17;;;58.67;;
3433;SDS011;1730;41.932;25.548;2023-12-20T09:43:03;87.40;;;50.50;;
3433;SDS011;1730;41.932;25.548;2023-12-20T09:45:30;70.20;;;39.87;;
3433;SDS011;1730;41.932;25.548;2023-12-20T09:47:56;88.57;;;50.87;;
3433;SDS011;1730;41.932;25.548;2023-12-20T09:50:23;76.07;;;45.33;;
3433;SDS011;1730;41.932;25.548;2023-12-20T09:52:49;51.90;;;38.17;;
3433;SDS011;1730;41.932;25.548;2023-12-20T09:55:17;55.33;;;37.63;;
3433;SDS011;1730;41.932;25.548;2023-12-20T09:57:44;81.03;;;44.70;;
3433;SDS011;1730;41.932;25.548;2023-12-20T10:00:11;65.47;;;42.20;;
3433;SDS011;1730;41.932;25.548;2023-12-20T10:02:38;60.43;;;42.57;;
3433;SDS011;1730;41.932;25.548;2023-12-20T10:05:10;72.53;;;45.07;;
3433;SDS011;1730;41.932;25.548;2023-12-20T10:07:41;49.53;;;35.87;;
3433;SDS011;1730;41.932;25.548;2023-12-20T10:10:07;59.23;;;38.20;;
3433;SDS011;1730;41.932;25.548;2023-12-20T10:12:34;38.90;;;27.77;;
3433;SDS011;1730;41.932;25.548;2023-12-20T10:14:59;43.80;;;29.27;;
3433;SDS011;1730;41.932;25.548;2023-12-20T10:17:25;51.70;;;31.37;;
3433;SDS011;1730;41.932;25.548;2023-12-20T10:19:54;51.37;;;28.90;;
3433;SDS011;1730;41.932;25.548;2023-12-20T10:22:19;38.27;;;25.33;;
3433;SDS011;1730;41.932;25.548;2023-12-20T10:24:45;35.67;;;24.33;;
3433;SDS011;1730;41.932;25.548;2023-12-20T10:27:12;34.37;;;24.17;;
3433;SDS011;1730;41.932;25.548;2023-12-20T10:29:38;37.83;;;27.37;;
3433;SDS011;1730;41.932;25.548;2023-12-20T10:32:23;40.47;;;29.23;;
3433;SDS011;1730;41.932;25.548;2023-12-20T10:34:50;47.80;;;31.03;;
3433;SDS011;1730;41.932;25.548;2023-12-20T10:37:17;42.63;;;30.77;;
3433;SDS011;1730;41.932;25.548;2023-12-20T10:39:42;37.73;;;28.80;;
3433;SDS011;1730;41.932;25.548;2023-12-20T10:42:09;35.70;;;26.10;;
3433;SDS011;1730;41.932;25.548;2023-12-20T10:44:37;30.47;;;23.60;;
3433;SDS011;1730;41.932;25.548;2023-12-20T10:47:03;28.43;;;22.10;;
3433;SDS011;1730;41.932;25.548;2023-12-20T10:49:30;33.40;;;21.87;;
3433;SDS011;1730;41.932;25.548;2023-12-20T10:52:01;21.87;;;17.67;;
3433;SDS011;1730;41.932;25.548;2023-12-20T10:54:29;21.03;;;16.43;;
3433;SDS011;1730;41.932;25.548;2023-12-20T10:56:55;19.83;;;15.90;;
3433;SDS011;1730;41.932;25.548;2023-12-20T10:59:22;23.90;;;18.00;;
3433;SDS011;1730;41.932;25.548;2023-12-20T11:01:49;26.40;;;21.03;;
3433;SDS011;1730;41.932;25.548;2023-12-20T11:04:25;28.13;;;21.20;;
3433;SDS011;1730;41.932;25.548;2023-12-20T11:06:58;26.80;;;21.50;;
3433;SDS011;1730;41.932;25.548;2023-12-20T11:09:35;27.90;;;21.43;;
3433;SDS011;1730;41.932;25.548;2023-12-20T11:14:40;30.63;;;22.20;;
3433;SDS011;1730;41.932;25.548;2023-12-20T11:17:10;41.90;;;22.83;;
3433;SDS011;1730;41.932;25.548;2023-12-20T11:22:22;31.07;;;22.50;;
3433;SDS011;1730;41.932;25.548;2023-12-20T11:24:50;26.07;;;20.53;;
3433;SDS011;1730;41.932;25.548;2023-12-20T11:27:18;31.77;;;22.23;;
3433;SDS011;1730;41.932;25.548;2023-12-20T11:29:50;28.20;;;20.33;;
3433;SDS011;1730;41.932;25.548;2023-12-20T11:35:16;31.93;;;22.27;;
3433;SDS011;1730;41.932;25.548;2023-12-20T11:37:54;30.80;;;22.30;;
3433;SDS011;1730;41.932;25.548;2023-12-20T11:40:23;44.13;;;27.50;;
3433;SDS011;1730;41.932;25.548;2023-12-20T11:42:50;31.97;;;20.60;;
3433;SDS011;1730;41.932;25.548;2023-12-20T11:45:21;31.93;;;23.03;;
3433;SDS011;1730;41.932;25.548;2023-12-20T11:47:50;29.47;;;20.30;;
3433;SDS011;1730;41.932;25.548;2023-12-20T11:50:17;27.03;;;20.10;;
3433;SDS011;1730;41.932;25.548;2023-12-20T11:52:43;32.67;;;21.50;;
3433;SDS011;1730;41.932;25.548;2023-12-20T11:55:09;29.53;;;23.13;;
3433;SDS011;1730;41.932;25.548;2023-12-20T11:57:35;33.70;;;21.10;;
3433;SDS011;1730;41.932;25.548;2023-12-20T12:00:01;37.33;;;21.03;;
3433;SDS011;1730;41.932;25.548;2023-12-20T12:02:31;29.47;;;15.77;;
3433;SDS011;1730;41.932;25.548;2023-12-20T12:04:57;23.07;;;18.90;;
3433;SDS011;1730;41.932;25.548;2023-12-20T12:07:24;21.83;;;18.10;;
3433;SDS011;1730;41.932;25.548;2023-12-20T12:09:49;23.57;;;18.07;;
3433;SDS011;1730;41.932;25.548;2023-12-20T12:12:15;26.00;;;18.73;;
3433;SDS011;1730;41.932;25.548;2023-12-20T12:14:41;24.10;;;18.03;;
3433;SDS011;1730;41.932;25.548;2023-12-20T12:17:13;32.50;;;18.13;;
3433;SDS011;1730;41.932;25.548;2023-12-20T12:19:40;39.20;;;21.67;;
3433;SDS011;1730;41.932;25.548;2023-12-20T12:24:38;17.20;;;13.50;;
3433;SDS011;1730;41.932;25.548;2023-12-20T12:27:05;20.27;;;15.90;;
3433;SDS011;1730;41.932;25.548;2023-12-20T12:29:32;23.87;;;19.00;;
3433;SDS011;1730;41.932;25.548;2023-12-20T12:31:58;16.60;;;12.90;;
3433;SDS011;1730;41.932;25.548;2023-12-20T12:34:26;19.87;;;16.03;;
3433;SDS011;1730;41.932;25.548;2023-12-20T12:36:53;23.73;;;17.70;;
3433;SDS011;1730;41.932;25.548;2023-12-20T12:39:18;23.33;;;19.00;;
3433;SDS011;1730;41.932;25.548;2023-12-20T12:41:44;22.80;;;16.90;;
3433;SDS011;1730;41.932;25.548;2023-12-20T12:44:10;26.67;;;18.40;;
3433;SDS011;1730;41.932;25.548;2023-12-20T12:46:37;25.97;;;17.30;;
3433;SDS011;1730;41.932;25.548;2023-12-20T12:49:09;23.07;;;17.77;;
3433;SDS011;1730;41.932;25.548;2023-12-20T12:51:35;30.53;;;23.40;;
3433;SDS011;1730;41.932;25.548;2023-12-20T12:54:00;44.87;;;25.63;;
3433;SDS011;1730;41.932;25.548;2023-12-20T12:56:26;36.57;;;26.37;;
3433;SDS011;1730;41.932;25.548;2023-12-20T12:58:51;37.40;;;23.60;;
3433;SDS011;1730;41.932;25.548;2023-12-20T13:01:17;39.80;;;26.57;;
3433;SDS011;1730;41.932;25.548;2023-12-20T13:03:42;47.23;;;28.43;;
3433;SDS011;1730;41.932;25.548;2023-12-20T13:06:08;42.97;;;29.57;;
3433;SDS011;1730;41.932;25.548;2023-12-20T13:08:34;40.07;;;26.70;;
3433;SDS011;1730;41.932;25.548;2023-12-20T13:10:59;31.87;;;23.17;;
3433;SDS011;1730;41.932;25.548;2023-12-20T13:13:29;29.40;;;20.57;;
3433;SDS011;1730;41.932;25.548;2023-12-20T13:15:54;29.33;;;22.13;;
3433;SDS011;1730;41.932;25.548;2023-12-20T13:18:20;40.87;;;28.83;;
3433;SDS011;1730;41.932;25.548;2023-12-20T13:20:46;51.17;;;32.57;;
3433;SDS011;1730;41.932;25.548;2023-12-20T13:23:12;72.70;;;47.70;;
3433;SDS011;1730;41.932;25.548;2023-12-20T13:25:38;75.57;;;49.10;;
3433;SDS011;1730;41.932;25.548;2023-12-20T13:28:04;65.87;;;47.13;;
3433;SDS011;1730;41.932;25.548;2023-12-20T13:30:30;66.40;;;46.53;;
3433;SDS011;1730;41.932;25.548;2023-12-20T13:32:55;92.83;;;51.20;;
3433;SDS011;1730;41.932;25.548;2023-12-20T13:35:21;57.00;;;39.60;;
3433;SDS011;1730;41.932;25.548;2023-12-20T13:37:46;58.53;;;39.70;;
3433;SDS011;1730;41.932;25.548;2023-12-20T13:40:12;53.47;;;38.50;;
3433;SDS011;1730;41.932;25.548;2023-12-20T13:42:42;61.47;;;43.20;;
3433;SDS011;1730;41.932;25.548;2023-12-20T13:45:08;74.60;;;52.87;;
3433;SDS011;1730;41.932;25.548;2023-12-20T13:47:34;83.43;;;58.37;;
3433;SDS011;1730;41.932;25.548;2023-12-20T13:50:00;70.67;;;51.33;;
3433;SDS011;1730;41.932;25.548;2023-12-20T13:52:26;477.00;;;223.30;;
3433;SDS011;1730;41.932;25.548;2023-12-20T13:54:51;109.87;;;66.50;;
3433;SDS011;1730;41.932;25.548;2023-12-20T13:57:17;82.13;;;55.13;;
3433;SDS011;1730;41.932;25.548;2023-12-20T13:59:43;81.60;;;57.27;;
3433;SDS011;1730;41.932;25.548;2023-12-20T14:02:09;123.23;;;83.77;;
3433;SDS011;1730;41.932;25.548;2023-12-20T14:04:34;115.23;;;75.33;;
3433;SDS011;1730;41.932;25.548;2023-12-20T14:07:00;107.13;;;70.70;;
3433;SDS011;1730;41.932;25.548;2023-12-20T14:09:26;117.43;;;73.17;;
3433;SDS011;1730;41.932;25.548;2023-12-20T14:11:51;109.03;;;70.97;;
3433;SDS011;1730;41.932;25.548;2023-12-20T14:14:17;163.17;;;103.00;;
3433;SDS011;1730;41.932;25.548;2023-12-20T14:16:42;137.83;;;88.07;;
3433;SDS011;1730;41.932;25.548;2023-12-20T14:19:11;112.13;;;74.70;;
3433;SDS011;1730;41.932;25.548;2023-12-20T14:21:36;161.13;;;105.23;;
3433;SDS011;1730;41.932;25.548;2023-12-20T14:24:02;198.30;;;129.53;;
3433;SDS011;1730;41.932;25.548;2023-12-20T14:26:29;156.63;;;106.70;;
3433;SDS011;1730;41.932;25.548;2023-12-20T14:28:55;159.23;;;108.67;;
3433;SDS011;1730;41.932;25.548;2023-12-20T14:31:20;171.83;;;112.17;;
3433;SDS011;1730;41.932;25.548;2023-12-20T14:33:48;169.90;;;111.63;;
3433;SDS011;1730;41.932;25.548;2023-12-20T14:36:15;174.57;;;111.30;;